createdAt,value
2023-03-29T00:01:35.462Z,93241.38
2023-03-29T00:04:19.814Z,93252.22
2023-03-29T00:07:04.434Z,93253.81
2023-03-29T00:09:48.917Z,93261.31
2023-03-29T00:12:31.916Z,93256.41
2023-03-29T00:15:15.185Z,93249.53
2023-03-29T00:17:58.709Z,93250.38
2023-03-29T00:20:41.609Z,93255.34
2023-03-29T00:23:25.125Z,93251.91
2023-03-29T00:26:09.560Z,93245.13
2023-03-29T00:28:52.313Z,93250.28
2023-03-29T00:31:35.210Z,93245.13
2023-03-29T00:34:18.202Z,93244.31
2023-03-29T00:37:01.628Z,93242.69
2023-03-29T00:39:44.673Z,93237.63
2023-03-29T00:42:29.152Z,93241.16
2023-03-29T00:45:19.824Z,93238.69
2023-03-29T00:48:05.937Z,93234.50
2023-03-29T00:50:53.215Z,93240.41
2023-03-29T00:53:39.211Z,93235.34
2023-03-29T00:56:27.751Z,93236.16
2023-03-29T00:59:16.174Z,93219.31
2023-03-29T01:02:03.526Z,93225.94
2023-03-29T01:04:51.859Z,93215.91
2023-03-29T01:07:41.156Z,93216.78
2023-03-29T01:10:29.010Z,93216.00
2023-03-29T01:13:16.906Z,93231.97
2023-03-29T01:16:02.845Z,93221.06
2023-03-29T01:18:47.002Z,93208.47
2023-03-29T01:21:36.353Z,93215.16
2023-03-29T01:24:42.236Z,93212.88
2023-03-29T01:27:43.806Z,93215.34
2023-03-29T01:30:32.071Z,93204.41
2023-03-29T01:33:21.275Z,93185.88
2023-03-29T01:36:14.026Z,93186.78
2023-03-29T01:38:59.188Z,93186.59
2023-03-29T01:41:47.848Z,93205.13
2023-03-29T01:44:37.709Z,93184.25
2023-03-29T01:47:28.854Z,93199.44
2023-03-29T01:50:18.692Z,93204.41
2023-03-29T01:53:09.036Z,93219.59
2023-03-29T01:55:56.066Z,93230.34
2023-03-29T01:58:44.783Z,93231.03
2023-03-29T02:01:32.995Z,93225.84
2023-03-29T02:04:19.547Z,93224.16
2023-03-29T02:07:05.349Z,93213.94
2023-03-29T02:09:50.558Z,93219.09
2023-03-29T02:12:34.338Z,93215.56
2023-03-29T02:15:20.690Z,93225.59
2023-03-29T02:18:07.017Z,93213.75
2023-03-29T02:20:51.923Z,93205.28
2023-03-29T02:23:39.234Z,93195.16
2023-03-29T02:26:24.009Z,93194.16
2023-03-29T02:29:06.980Z,93198.22
2023-03-29T02:31:54.685Z,93201.41
2023-03-29T02:34:47.713Z,93198.72
2023-03-29T02:37:34.527Z,93199.41
2023-03-29T02:40:18.380Z,93193.44
2023-03-29T02:43:03.527Z,93183.25
2023-03-29T02:45:48.184Z,93184.69
2023-03-29T02:48:33.307Z,93184.59
2023-03-29T02:51:21.444Z,93173.66
2023-03-29T02:54:08.273Z,93171.09
2023-03-29T02:56:57.451Z,93169.41
2023-03-29T02:59:41.161Z,93164.25
2023-03-29T03:02:25.914Z,93165.97
2023-03-29T03:05:10.665Z,93159.19
2023-03-29T03:07:55.018Z,93152.47
2023-03-29T03:10:38.268Z,93151.69
2023-03-29T03:13:21.413Z,93139.91
2023-03-29T03:16:04.471Z,93140.00
2023-03-29T03:18:48.781Z,93136.81
2023-03-29T03:21:31.749Z,93131.03
2023-03-29T03:24:17.748Z,93130.34
2023-03-29T03:27:00.631Z,93132.13
2023-03-29T03:29:44.098Z,93133.84
2023-03-29T03:32:27.150Z,93120.38
2023-03-29T03:35:39.717Z,93118.00
2023-03-29T03:38:23.517Z,93126.34
2023-03-29T03:41:14.127Z,93131.31
2023-03-29T03:43:57.006Z,93123.63
2023-03-29T03:46:40.421Z,93125.44
2023-03-29T03:49:23.314Z,93121.16
2023-03-29T03:52:06.559Z,93124.34
2023-03-29T03:54:50.335Z,93128.59
2023-03-29T03:57:53.419Z,93127.69
2023-03-29T04:00:36.919Z,93126.78
2023-03-29T04:03:37.613Z,93121.63
2023-03-29T04:06:20.933Z,93121.63
2023-03-29T04:09:27.012Z,93124.91
2023-03-29T04:12:25.010Z,93129.16
2023-03-29T04:15:12.192Z,93127.53
2023-03-29T04:18:02.023Z,93126.53
2023-03-29T04:20:51.897Z,93127.44
2023-03-29T04:23:37.910Z,93125.91
2023-03-29T04:26:22.951Z,93118.63
2023-03-29T04:29:12.305Z,93113.56
2023-03-29T04:32:02.366Z,93104.53
2023-03-29T04:34:59.275Z,93103.81
2023-03-29T04:37:42.188Z,93100.63
2023-03-29T04:40:28.978Z,93106.59
2023-03-29T04:43:34.879Z,93104.16
2023-03-29T04:46:27.271Z,93107.59
2023-03-29T04:49:40.612Z,93106.97
2023-03-29T04:52:28.049Z,93107.88
2023-03-29T04:55:12.862Z,93118.50
2023-03-29T04:58:07.076Z,93107.00
2023-03-29T05:00:51.646Z,93108.91
2023-03-29T05:03:46.128Z,93111.34
2023-03-29T05:06:36.864Z,93106.28
2023-03-29T05:09:22.348Z,93102.06
2023-03-29T05:12:07.806Z,93103.75
2023-03-29T05:15:02.736Z,93104.56
2023-03-29T05:17:45.682Z,93096.97
2023-03-29T05:20:29.852Z,93100.25
2023-03-29T05:23:17.527Z,93101.06
2023-03-29T05:26:22.381Z,93097.06
2023-03-29T05:29:09.075Z,93093.00
2023-03-29T05:31:53.306Z,93096.59
2023-03-29T05:34:37.082Z,93094.22
2023-03-29T05:37:20.993Z,93090.91
2023-03-29T05:40:12.924Z,93079.25
2023-03-29T05:43:14.521Z,93077.63
2023-03-29T05:45:57.874Z,93087.81
2023-03-29T05:48:41.794Z,93087.81
2023-03-29T05:51:27.282Z,93078.78
2023-03-29T05:54:12.013Z,93073.78
2023-03-29T05:56:56.327Z,93083.91
2023-03-29T05:59:39.200Z,93080.38
2023-03-29T06:02:22.229Z,93089.22
2023-03-29T06:05:09.296Z,93084.34
2023-03-29T06:07:58.189Z,93075.03
2023-03-29T06:11:04.555Z,93080.75
2023-03-29T06:14:07.699Z,93073.88
2023-03-29T06:16:56.621Z,93070.53
2023-03-29T06:19:39.710Z,93079.00
2023-03-29T06:22:22.725Z,93081.53
2023-03-29T06:25:06.608Z,93076.47
2023-03-29T06:27:50.196Z,93078.94
2023-03-29T06:30:36.462Z,93077.84
2023-03-29T06:33:20.503Z,93071.72
2023-03-29T06:36:23.784Z,93083.31
2023-03-29T06:39:08.675Z,93081.41
2023-03-29T06:42:20.501Z,93081.41
2023-03-29T06:45:24.772Z,93082.13
2023-03-29T06:48:12.319Z,93087.13
2023-03-29T06:50:55.634Z,93090.56
2023-03-29T06:53:41.623Z,93095.44
2023-03-29T06:56:24.495Z,93083.50
2023-03-29T06:59:16.541Z,93088.31
2023-03-29T07:02:07.807Z,93089.03
2023-03-29T07:05:08.755Z,93084.69
2023-03-29T07:07:56.830Z,93095.47
2023-03-29T07:10:56.626Z,93096.91
2023-03-29T07:13:57.883Z,93098.38
2023-03-29T07:16:42.578Z,93094.94
2023-03-29T07:19:34.116Z,93098.19
2023-03-29T07:22:45.783Z,93097.19
2023-03-29T07:25:30.022Z,93109.69
2023-03-29T07:28:14.506Z,93107.88
2023-03-29T07:31:03.760Z,93098.38
2023-03-29T07:33:49.520Z,93090.72
2023-03-29T07:36:34.946Z,93094.78
2023-03-29T07:39:19.415Z,93097.22
2023-03-29T07:42:21.645Z,93095.34
2023-03-29T07:45:05.003Z,93098.38
2023-03-29T07:47:56.193Z,93088.91
2023-03-29T07:50:39.683Z,93094.50
2023-03-29T07:53:23.849Z,93086.63
2023-03-29T07:56:11.142Z,93073.78
2023-03-29T07:59:02.190Z,93082.03
2023-03-29T08:01:45.995Z,93066.63
2023-03-29T08:04:42.077Z,93076.50
2023-03-29T08:07:33.961Z,93081.28
2023-03-29T08:10:35.393Z,93091.88
2023-03-29T08:13:35.948Z,93089.94
2023-03-29T08:16:37.112Z,93092.41
2023-03-29T08:19:25.349Z,93099.13
2023-03-29T08:22:21.093Z,93094.03
2023-03-29T08:25:22.963Z,93101.53
2023-03-29T08:28:08.913Z,93098.09
2023-03-29T08:31:04.036Z,93097.09
2023-03-29T08:33:47.192Z,93098.72
2023-03-29T08:36:52.613Z,93092.66
2023-03-29T08:39:46.018Z,93095.00
2023-03-29T08:43:15.525Z,93098.25
2023-03-29T08:46:38.348Z,93093.00
2023-03-29T08:49:44.172Z,93102.13
2023-03-29T08:52:36.358Z,93101.03
2023-03-29T08:55:34.591Z,93099.22
2023-03-29T08:58:52.511Z,93100.88
2023-03-29T09:01:38.485Z,93093.16
2023-03-29T09:04:25.905Z,93097.13
2023-03-29T09:07:17.064Z,93097.56
2023-03-29T09:10:03.540Z,93098.28
2023-03-29T09:13:11.103Z,93083.69
2023-03-29T09:16:06.182Z,93082.69
2023-03-29T09:19:08.100Z,93078.13
2023-03-29T09:21:59.171Z,93079.38
2023-03-29T09:24:54.652Z,93073.81
2023-03-29T09:27:48.886Z,93076.88
2023-03-29T09:30:57.603Z,93076.25
2023-03-29T09:33:43.690Z,93081.06
2023-03-29T09:36:39.111Z,93075.56
2023-03-29T09:39:23.681Z,93076.72
2023-03-29T09:42:14.660Z,93088.50
2023-03-29T09:45:08.472Z,93088.81
2023-03-29T09:48:03.746Z,93092.59
2023-03-29T09:50:51.343Z,93092.28
2023-03-29T09:53:36.436Z,93085.91
2023-03-29T09:56:34.336Z,93088.13
2023-03-29T09:59:26.336Z,93101.44
2023-03-29T10:02:11.951Z,93087.63
2023-03-29T10:04:58.802Z,93084.91
2023-03-29T10:07:46.403Z,93082.34
2023-03-29T10:10:35.598Z,93081.13
2023-03-29T10:13:23.647Z,93079.00
2023-03-29T10:16:09.261Z,93087.81
2023-03-29T10:18:54.665Z,93082.34
2023-03-29T10:21:38.594Z,93076.38
2023-03-29T10:24:22.376Z,93074.34
2023-03-29T10:27:11.735Z,93075.97
2023-03-29T10:29:55.794Z,93075.06
2023-03-29T10:32:41.569Z,93073.84
2023-03-29T10:35:28.901Z,93067.72
2023-03-29T10:38:14.845Z,93063.03
2023-03-29T10:41:08.034Z,93057.56
2023-03-29T10:43:52.461Z,93061.50
2023-03-29T10:46:42.723Z,93058.56
2023-03-29T10:49:26.131Z,93058.63
2023-03-29T10:52:09.313Z,93066.56
2023-03-29T10:54:55.949Z,93063.50
2023-03-29T10:57:49.956Z,93051.16
2023-03-29T11:00:41.876Z,93056.31
2023-03-29T11:03:40.230Z,93062.41
2023-03-29T11:06:29.170Z,93063.56
2023-03-29T11:09:21.291Z,93055.75
2023-03-29T11:12:16.338Z,93050.22
2023-03-29T11:15:12.777Z,93054.88
2023-03-29T11:18:11.509Z,93050.59
2023-03-29T11:21:06.814Z,93061.94
2023-03-29T11:24:03.576Z,93061.66
2023-03-29T11:26:58.436Z,93054.25
2023-03-29T11:29:44.898Z,93057.31
2023-03-29T11:32:33.375Z,93045.38
2023-03-29T11:35:49.312Z,93050.13
2023-03-29T11:38:41.371Z,93038.59
2023-03-29T11:41:28.830Z,93042.41
2023-03-29T11:44:17.582Z,93044.88
2023-03-29T11:47:05.000Z,93043.69
2023-03-29T11:49:54.433Z,93038.38
2023-03-29T11:52:43.719Z,93030.66
2023-03-29T11:55:29.121Z,93027.06
2023-03-29T11:58:18.318Z,93017.22
2023-03-29T12:01:05.338Z,93013.41
2023-03-29T12:03:54.218Z,93011.00
2023-03-29T12:06:43.592Z,93001.50
2023-03-29T12:09:34.433Z,93002.06
2023-03-29T12:12:23.379Z,92995.47
2023-03-29T12:15:10.855Z,92998.28
2023-03-29T12:18:03.734Z,92999.53
2023-03-29T12:20:52.509Z,93001.72
2023-03-29T12:23:35.748Z,92995.47
2023-03-29T12:26:35.320Z,92996.63
2023-03-29T12:29:31.853Z,92991.63
2023-03-29T12:32:40.441Z,92998.69
2023-03-29T12:36:13.983Z,93000.22
2023-03-29T12:39:00.119Z,93000.06
2023-03-29T12:41:51.993Z,93005.19
2023-03-29T12:45:04.611Z,92992.06
2023-03-29T12:47:52.855Z,92996.38
2023-03-29T12:50:38.116Z,92992.06
2023-03-29T12:53:25.648Z,92988.59
2023-03-29T12:56:13.389Z,92975.59
2023-03-29T12:59:07.871Z,92981.25
2023-03-29T13:02:00.288Z,92979.16
2023-03-29T13:04:52.136Z,92977.88
2023-03-29T13:07:47.488Z,92983.44
2023-03-29T13:10:37.966Z,92985.75
2023-03-29T13:13:25.782Z,92987.38
2023-03-29T13:16:18.824Z,92987.38
2023-03-29T13:19:29.993Z,92976.09
2023-03-29T13:22:23.841Z,92977.50
2023-03-29T13:25:21.510Z,92973.63
2023-03-29T13:28:10.542Z,92979.53
2023-03-29T13:31:00.551Z,92972.38
2023-03-29T13:33:55.973Z,92971.56
2023-03-29T13:36:53.918Z,92969.84
2023-03-29T13:39:37.795Z,92967.84
2023-03-29T13:42:26.019Z,92968.91
2023-03-29T13:45:15.722Z,92968.06
2023-03-29T13:48:22.520Z,92970.63
2023-03-29T13:51:32.719Z,92973.19
2023-03-29T13:54:29.523Z,92960.66
2023-03-29T13:57:17.768Z,92964.59
2023-03-29T14:00:07.192Z,92957.38
2023-03-29T14:02:57.423Z,92952.84
2023-03-29T14:05:43.236Z,92959.31
2023-03-29T14:08:32.383Z,92955.84
2023-03-29T14:11:23.244Z,92958.03
2023-03-29T14:14:08.329Z,92948.50
2023-03-29T14:16:51.728Z,92942.47
2023-03-29T14:19:38.564Z,92945.69
2023-03-29T14:22:22.192Z,92938.03
2023-03-29T14:25:14.547Z,92939.53
2023-03-29T14:27:57.428Z,92940.78
2023-03-29T14:30:46.634Z,92934.50
2023-03-29T14:33:32.518Z,92939.34
2023-03-29T14:36:18.672Z,92934.94
2023-03-29T14:39:05.596Z,92936.81
2023-03-29T14:41:51.757Z,92930.44
2023-03-29T14:44:35.607Z,92937.41
2023-03-29T14:47:24.383Z,92940.78
2023-03-29T14:50:17.549Z,92942.16
2023-03-29T14:53:02.566Z,92940.53
2023-03-29T14:55:50.144Z,92936.91
2023-03-29T14:58:36.445Z,92927.50
2023-03-29T15:01:22.289Z,92928.75
2023-03-29T15:04:08.575Z,92926.25
2023-03-29T15:06:52.790Z,92928.03
2023-03-29T15:09:38.429Z,92921.50
2023-03-29T15:12:21.860Z,92929.50
2023-03-29T15:15:10.468Z,92924.94
2023-03-29T15:17:53.774Z,92924.81
2023-03-29T15:20:39.712Z,92920.50
2023-03-29T15:23:25.151Z,92916.63
2023-03-29T15:26:11.549Z,92917.06
2023-03-29T15:28:57.479Z,92915.34
2023-03-29T15:31:43.004Z,92920.88
2023-03-29T15:34:27.543Z,92919.94
2023-03-29T15:37:12.732Z,92918.06
2023-03-29T15:39:56.331Z,92921.84
2023-03-29T15:42:39.201Z,92924.25
2023-03-29T15:45:23.106Z,92922.53
2023-03-29T15:48:16.602Z,92919.72
2023-03-29T15:51:01.945Z,92921.06
2023-03-29T15:53:46.769Z,92921.75
2023-03-29T15:56:29.927Z,92923.34
2023-03-29T15:59:13.325Z,92925.66
2023-03-29T16:01:57.874Z,92915.28
2023-03-29T16:04:42.195Z,92914.09
2023-03-29T16:07:25.034Z,92913.97
2023-03-29T16:10:09.000Z,92921.66
2023-03-29T16:12:51.932Z,92914.78
2023-03-29T16:15:36.844Z,92904.38
2023-03-29T16:18:19.713Z,92912.91
2023-03-29T16:21:04.793Z,92904.69
2023-03-29T16:23:48.100Z,92904.78
2023-03-29T16:26:32.626Z,92891.47
2023-03-29T16:29:17.312Z,92893.34
2023-03-29T16:32:00.737Z,92900.47
2023-03-29T16:34:43.691Z,92902.50
2023-03-29T16:37:27.915Z,92905.31
2023-03-29T16:40:12.519Z,92906.38
2023-03-29T16:42:55.343Z,92904.88
2023-03-29T16:45:38.514Z,92903.41
2023-03-29T16:48:21.745Z,92896.69
2023-03-29T16:51:05.168Z,92895.84
2023-03-29T16:53:49.403Z,92901.91
2023-03-29T16:56:32.279Z,92902.97
2023-03-29T16:59:15.358Z,92905.00
2023-03-29T17:01:58.651Z,92901.88
2023-03-29T17:04:41.573Z,92897.03
2023-03-29T17:07:24.576Z,92892.84
2023-03-29T17:10:10.715Z,92890.56
2023-03-29T17:12:53.923Z,92893.38
2023-03-29T17:15:39.581Z,92887.72
2023-03-29T17:18:24.239Z,92886.34
2023-03-29T17:21:08.173Z,92890.78
2023-03-29T17:23:51.052Z,92890.22
2023-03-29T17:26:35.673Z,92891.41
2023-03-29T17:29:18.440Z,92895.25
2023-03-29T17:32:01.446Z,92895.25
2023-03-29T17:34:44.319Z,92895.50
2023-03-29T17:37:28.164Z,92900.75
2023-03-29T17:40:13.858Z,92892.28
2023-03-29T17:42:58.201Z,92897.53
2023-03-29T17:45:41.125Z,92898.44
2023-03-29T17:48:25.055Z,92896.16
2023-03-29T17:51:08.365Z,92899.53
2023-03-29T17:53:52.344Z,92900.56
2023-03-29T17:56:35.339Z,92904.19
2023-03-29T17:59:19.851Z,92903.38
2023-03-29T18:02:05.466Z,92906.22
2023-03-29T18:04:48.685Z,92905.50
2023-03-29T18:07:31.957Z,92906.25
2023-03-29T18:10:14.962Z,92910.66
2023-03-29T18:12:57.985Z,92907.25
2023-03-29T18:15:42.337Z,92910.44
2023-03-29T18:18:25.687Z,92902.47
2023-03-29T18:21:10.188Z,92908.66
2023-03-29T18:23:55.540Z,92911.44
2023-03-29T18:26:39.627Z,92911.69
2023-03-29T18:29:22.528Z,92917.03
2023-03-29T18:32:07.328Z,92921.19
2023-03-29T18:34:50.376Z,92926.19
2023-03-29T18:37:33.257Z,92926.31
2023-03-29T18:40:20.387Z,92928.06
2023-03-29T18:43:03.270Z,92933.84
2023-03-29T18:45:47.589Z,92931.16
2023-03-29T18:48:33.696Z,92928.75
2023-03-29T18:51:16.704Z,92921.88
2023-03-29T18:53:59.584Z,92932.34
2023-03-29T18:56:42.541Z,92926.69
2023-03-29T18:59:25.784Z,92930.16
2023-03-29T19:02:08.788Z,92931.09
2023-03-29T19:04:53.027Z,92938.88
2023-03-29T19:07:36.354Z,92931.22
2023-03-29T19:10:19.270Z,92931.09
2023-03-29T19:13:02.127Z,92931.09
2023-03-29T19:15:45.454Z,92924.22
2023-03-29T19:18:28.387Z,92926.78
2023-03-29T19:21:12.687Z,92922.88
2023-03-29T19:23:55.873Z,92918.69
2023-03-29T19:26:38.731Z,92923.13
2023-03-29T19:29:21.841Z,92925.66
2023-03-29T19:32:06.772Z,92921.72
2023-03-29T19:34:49.720Z,92924.53
2023-03-29T19:37:33.941Z,92913.75
2023-03-29T19:40:17.234Z,92911.56
2023-03-29T19:43:00.247Z,92906.16
2023-03-29T19:45:43.452Z,92906.25
2023-03-29T19:48:26.534Z,92907.31
2023-03-29T19:51:09.567Z,92908.38
2023-03-29T19:53:53.987Z,92902.69
2023-03-29T19:56:37.398Z,92903.75
2023-03-29T19:59:20.343Z,92908.97
2023-03-29T20:02:03.263Z,92912.47
2023-03-29T20:04:46.376Z,92912.56
2023-03-29T20:07:29.441Z,92906.53
2023-03-29T20:10:13.701Z,92919.06
2023-03-29T20:12:56.995Z,92909.69
2023-03-29T20:15:39.945Z,92907.78
2023-03-29T20:18:23.633Z,92902.59
2023-03-29T20:21:06.975Z,92901.66
2023-03-29T20:23:50.144Z,92905.84
2023-03-29T20:26:34.396Z,92904.06
2023-03-29T20:29:18.038Z,92900.03
2023-03-29T20:32:01.127Z,92896.78
2023-03-29T20:34:44.056Z,92895.16
2023-03-29T20:37:27.200Z,92887.66
2023-03-29T20:40:11.422Z,92889.38
2023-03-29T20:42:55.611Z,92899.72
2023-03-29T20:45:52.212Z,92892.84
2023-03-29T20:48:38.229Z,92893.91
2023-03-29T20:51:21.492Z,92889.75
2023-03-29T20:54:07.744Z,92894.03
2023-03-29T20:56:50.859Z,92888.81
2023-03-29T20:59:35.639Z,92891.22
2023-03-29T21:02:21.178Z,92881.97
2023-03-29T21:05:04.247Z,92886.03
2023-03-29T21:07:48.073Z,92881.63
2023-03-29T21:10:31.003Z,92881.25
2023-03-29T21:13:13.885Z,92878.47
2023-03-29T21:15:58.275Z,92880.66
2023-03-29T21:18:41.680Z,92873.69
2023-03-29T21:21:24.648Z,92875.97
2023-03-29T21:24:08.657Z,92867.28
2023-03-29T21:26:51.635Z,92865.28
2023-03-29T21:29:34.539Z,92859.00
2023-03-29T21:32:18.874Z,92852.16
2023-03-29T21:35:02.033Z,92854.69
2023-03-29T21:37:44.974Z,92847.03
2023-03-29T21:40:27.892Z,92854.94
2023-03-29T21:43:10.941Z,92858.56
2023-03-29T21:45:53.848Z,92858.25
2023-03-29T21:48:38.578Z,92840.63
2023-03-29T21:51:21.482Z,92844.47
2023-03-29T21:54:04.648Z,92847.25
2023-03-29T21:56:47.797Z,92844.84
2023-03-29T21:59:30.865Z,92841.38
2023-03-29T22:02:13.848Z,92850.75
2023-03-29T22:04:58.097Z,92842.06
2023-03-29T22:07:41.017Z,92845.66
2023-03-29T22:10:23.940Z,92843.78
2023-03-29T22:13:06.897Z,92851.34
2023-03-29T22:15:50.959Z,92840.88
2023-03-29T22:18:43.210Z,92839.69
2023-03-29T22:21:31.184Z,92847.09
2023-03-29T22:24:14.111Z,92844.31
2023-03-29T22:26:57.108Z,92846.63
2023-03-29T22:29:39.967Z,92849.84
2023-03-29T22:32:23.039Z,92854.94
2023-03-29T22:35:07.013Z,92857.88
2023-03-29T22:37:51.299Z,92857.88
2023-03-29T22:40:34.293Z,92853.59
2023-03-29T22:43:17.290Z,92847.28
2023-03-29T22:46:00.257Z,92843.69
2023-03-29T22:48:43.224Z,92838.22
2023-03-29T22:51:26.318Z,92823.44
2023-03-29T22:54:10.569Z,92820.41
2023-03-29T22:56:53.844Z,92825.53
2023-03-29T22:59:36.761Z,92827.94
2023-03-29T23:02:19.649Z,92833.88
2023-03-29T23:05:02.600Z,92833.31
2023-03-29T23:07:45.515Z,92830.06
2023-03-29T23:10:30.590Z,92811.53
2023-03-29T23:13:15.703Z,92813.38
2023-03-29T23:16:00.456Z,92811.06
2023-03-29T23:18:43.442Z,92819.09
2023-03-29T23:21:27.901Z,92828.94
2023-03-29T23:24:10.788Z,92835.59
2023-03-29T23:26:55.283Z,92832.56
2023-03-29T23:29:38.916Z,92819.81
2023-03-29T23:32:21.857Z,92805.41
2023-03-29T23:35:05.253Z,92808.34
2023-03-29T23:37:48.525Z,92805.53
2023-03-29T23:40:32.953Z,92802.88
2023-03-29T23:43:17.195Z,92795.91
2023-03-29T23:46:01.672Z,92808.66
2023-03-29T23:48:49.376Z,92802.88
2023-03-29T23:51:34.948Z,92792.28
2023-03-29T23:54:18.271Z,92792.03
2023-03-29T23:57:01.312Z,92791.66
2023-03-29T23:59:45.613Z,92797.31
